sensor_id;sensor_type;location;lat;lon;timestamp;P1;durP1;ratioP1;P2;durP2;ratioP2
51358;SDS011;37448;51.588;7.248;2023-02-11T00:00:42;35.60;;;16.70;;
51358;SDS011;37448;51.588;7.248;2023-02-11T00:02:43;34.08;;;16.95;;
51358;SDS011;37448;51.588;7.248;2023-02-11T00:04:43;38.70;;;17.25;;
51358;SDS011;37448;51.588;7.248;2023-02-11T00:06:44;35.40;;;17.42;;
51358;SDS011;37448;51.588;7.248;2023-02-11T00:08:44;36.33;;;16.58;;
51358;SDS011;37448;51.588;7.248;2023-02-11T00:10:45;36.65;;;16.23;;
51358;SDS011;37448;51.588;7.248;2023-02-11T00:12:45;41.03;;;17.38;;
51358;SDS011;37448;51.588;7.248;2023-02-11T00:14:45;34.28;;;16.33;;
51358;SDS011;37448;51.588;7.248;2023-02-11T00:16:46;33.75;;;17.08;;
51358;SDS011;37448;51.588;7.248;2023-02-11T00:18:46;29.58;;;13.52;;
51358;SDS011;37448;51.588;7.248;2023-02-11T00:20:47;39.10;;;17.25;;
51358;SDS011;37448;51.588;7.248;2023-02-11T00:22:47;35.63;;;16.35;;
51358;SDS011;37448;51.588;7.248;2023-02-11T00:24:48;32.30;;;16.13;;
51358;SDS011;37448;51.588;7.248;2023-02-11T00:26:48;33.33;;;16.13;;
51358;SDS011;37448;51.588;7.248;2023-02-11T00:28:49;34.38;;;17.08;;
51358;SDS011;37448;51.588;7.248;2023-02-11T00:30:53;39.47;;;17.30;;
51358;SDS011;37448;51.588;7.248;2023-02-11T00:32:55;33.97;;;17.48;;
51358;SDS011;37448;51.588;7.248;2023-02-11T00:34:55;29.63;;;15.52;;
51358;SDS011;37448;51.588;7.248;2023-02-11T00:36:56;31.60;;;15.63;;
51358;SDS011;37448;51.588;7.248;2023-02-11T00:38:58;33.30;;;16.08;;
51358;SDS011;37448;51.588;7.248;2023-02-11T00:40:58;37.58;;;16.42;;
51358;SDS011;37448;51.588;7.248;2023-02-11T00:42:59;32.88;;;16.13;;
51358;SDS011;37448;51.588;7.248;2023-02-11T00:44:59;32.80;;;15.68;;
51358;SDS011;37448;51.588;7.248;2023-02-11T00:47:00;29.38;;;15.02;;
51358;SDS011;37448;51.588;7.248;2023-02-11T00:49:00;36.95;;;16.83;;
51358;SDS011;37448;51.588;7.248;2023-02-11T00:51:01;28.88;;;13.88;;
51358;SDS011;37448;51.588;7.248;2023-02-11T00:53:03;30.58;;;15.10;;
51358;SDS011;37448;51.588;7.248;2023-02-11T00:55:03;29.10;;;14.90;;
51358;SDS011;37448;51.588;7.248;2023-02-11T00:57:05;43.47;;;15.25;;
51358;SDS011;37448;51.588;7.248;2023-02-11T00:59:06;34.90;;;14.35;;
51358;SDS011;37448;51.588;7.248;2023-02-11T01:01:06;30.88;;;14.90;;
51358;SDS011;37448;51.588;7.248;2023-02-11T01:03:07;28.08;;;15.15;;
51358;SDS011;37448;51.588;7.248;2023-02-11T01:05:07;27.50;;;13.85;;
51358;SDS011;37448;51.588;7.248;2023-02-11T01:07:08;27.83;;;13.70;;
51358;SDS011;37448;51.588;7.248;2023-02-11T01:09:08;29.17;;;13.90;;
51358;SDS011;37448;51.588;7.248;2023-02-11T01:11:16;35.13;;;15.82;;
51358;SDS011;37448;51.588;7.248;2023-02-11T01:13:18;27.00;;;13.77;;
51358;SDS011;37448;51.588;7.248;2023-02-11T01:15:20;38.70;;;15.10;;
51358;SDS011;37448;51.588;7.248;2023-02-11T01:17:21;27.98;;;15.88;;
51358;SDS011;37448;51.588;7.248;2023-02-11T01:19:23;29.75;;;13.98;;
51358;SDS011;37448;51.588;7.248;2023-02-11T01:21:24;28.85;;;13.07;;
51358;SDS011;37448;51.588;7.248;2023-02-11T01:23:24;27.90;;;13.10;;
51358;SDS011;37448;51.588;7.248;2023-02-11T01:25:25;26.20;;;14.02;;
51358;SDS011;37448;51.588;7.248;2023-02-11T01:27:26;28.23;;;14.52;;
51358;SDS011;37448;51.588;7.248;2023-02-11T01:29:26;24.98;;;13.13;;
51358;SDS011;37448;51.588;7.248;2023-02-11T01:31:29;25.98;;;13.63;;
51358;SDS011;37448;51.588;7.248;2023-02-11T01:33:30;25.95;;;12.02;;
51358;SDS011;37448;51.588;7.248;2023-02-11T01:35:31;25.65;;;12.32;;
51358;SDS011;37448;51.588;7.248;2023-02-11T01:37:32;25.23;;;14.38;;
51358;SDS011;37448;51.588;7.248;2023-02-11T01:39:33;32.63;;;14.95;;
51358;SDS011;37448;51.588;7.248;2023-02-11T01:41:34;24.08;;;13.05;;
51358;SDS011;37448;51.588;7.248;2023-02-11T01:43:36;27.48;;;13.05;;
51358;SDS011;37448;51.588;7.248;2023-02-11T01:47:46;23.52;;;12.68;;
51358;SDS011;37448;51.588;7.248;2023-02-11T01:49:48;27.13;;;12.40;;
51358;SDS011;37448;51.588;7.248;2023-02-11T01:51:59;22.80;;;11.63;;
51358;SDS011;37448;51.588;7.248;2023-02-11T01:54:04;25.15;;;11.70;;
51358;SDS011;37448;51.588;7.248;2023-02-11T01:56:25;24.38;;;12.23;;
51358;SDS011;37448;51.588;7.248;2023-02-11T01:58:46;24.20;;;12.88;;
51358;SDS011;37448;51.588;7.248;2023-02-11T02:00:51;26.73;;;12.48;;
51358;SDS011;37448;51.588;7.248;2023-02-11T02:03:01;25.33;;;13.10;;
51358;SDS011;37448;51.588;7.248;2023-02-11T02:05:09;23.38;;;12.52;;
51358;SDS011;37448;51.588;7.248;2023-02-11T02:07:16;26.73;;;12.52;;
51358;SDS011;37448;51.588;7.248;2023-02-11T02:09:26;23.98;;;12.48;;
51358;SDS011;37448;51.588;7.248;2023-02-11T02:11:30;25.42;;;12.88;;
51358;SDS011;37448;51.588;7.248;2023-02-11T02:13:32;23.33;;;11.52;;
51358;SDS011;37448;51.588;7.248;2023-02-11T02:15:34;23.10;;;11.93;;
51358;SDS011;37448;51.588;7.248;2023-02-11T02:17:37;30.33;;;13.18;;
51358;SDS011;37448;51.588;7.248;2023-02-11T02:19:50;23.77;;;11.48;;
51358;SDS011;37448;51.588;7.248;2023-02-11T02:26:52;27.52;;;12.68;;
51358;SDS011;37448;51.588;7.248;2023-02-11T02:36:08;23.23;;;12.40;;
51358;SDS011;37448;51.588;7.248;2023-02-11T02:38:22;24.70;;;12.80;;
51358;SDS011;37448;51.588;7.248;2023-02-11T02:40:28;22.83;;;11.77;;
51358;SDS011;37448;51.588;7.248;2023-02-11T02:42:35;21.73;;;10.23;;
51358;SDS011;37448;51.588;7.248;2023-02-11T02:44:39;23.77;;;11.98;;
51358;SDS011;37448;51.588;7.248;2023-02-11T02:46:39;26.92;;;10.80;;
51358;SDS011;37448;51.588;7.248;2023-02-11T02:48:39;21.15;;;10.50;;
51358;SDS011;37448;51.588;7.248;2023-02-11T02:50:40;26.40;;;11.05;;
51358;SDS011;37448;51.588;7.248;2023-02-11T02:55:19;23.75;;;11.30;;
51358;SDS011;37448;51.588;7.248;2023-02-11T03:02:14;22.23;;;10.40;;
51358;SDS011;37448;51.588;7.248;2023-02-11T03:04:27;19.35;;;10.73;;
51358;SDS011;37448;51.588;7.248;2023-02-11T03:08:40;21.85;;;12.63;;
51358;SDS011;37448;51.588;7.248;2023-02-11T03:10:45;22.08;;;11.23;;
51358;SDS011;37448;51.588;7.248;2023-02-11T03:12:49;19.30;;;10.73;;
51358;SDS011;37448;51.588;7.248;2023-02-11T03:14:51;26.40;;;11.73;;
51358;SDS011;37448;51.588;7.248;2023-02-11T03:16:52;25.10;;;12.77;;
51358;SDS011;37448;51.588;7.248;2023-02-11T03:18:57;22.92;;;10.75;;
51358;SDS011;37448;51.588;7.248;2023-02-11T03:21:02;22.00;;;11.60;;
51358;SDS011;37448;51.588;7.248;2023-02-11T03:23:09;25.55;;;11.48;;
51358;SDS011;37448;51.588;7.248;2023-02-11T03:25:15;23.77;;;11.93;;
51358;SDS011;37448;51.588;7.248;2023-02-11T03:27:20;20.75;;;9.77;;
51358;SDS011;37448;51.588;7.248;2023-02-11T03:29:30;26.95;;;12.60;;
51358;SDS011;37448;51.588;7.248;2023-02-11T03:31:54;23.33;;;11.32;;
51358;SDS011;37448;51.588;7.248;2023-02-11T03:34:05;21.75;;;11.15;;
51358;SDS011;37448;51.588;7.248;2023-02-11T03:36:09;26.48;;;12.23;;
51358;SDS011;37448;51.588;7.248;2023-02-11T03:38:19;21.48;;;12.55;;
51358;SDS011;37448;51.588;7.248;2023-02-11T03:40:23;23.30;;;12.10;;
51358;SDS011;37448;51.588;7.248;2023-02-11T03:42:30;24.23;;;11.30;;
51358;SDS011;37448;51.588;7.248;2023-02-11T03:44:43;28.38;;;14.18;;
51358;SDS011;37448;51.588;7.248;2023-02-11T03:46:49;24.52;;;12.55;;
51358;SDS011;37448;51.588;7.248;2023-02-11T03:48:51;32.95;;;12.38;;
51358;SDS011;37448;51.588;7.248;2023-02-11T03:50:56;29.60;;;14.65;;
51358;SDS011;37448;51.588;7.248;2023-02-11T03:52:59;28.30;;;12.25;;
51358;SDS011;37448;51.588;7.248;2023-02-11T03:55:02;35.58;;;14.70;;
51358;SDS011;37448;51.588;7.248;2023-02-11T03:57:07;26.83;;;14.07;;
51358;SDS011;37448;51.588;7.248;2023-02-11T03:59:08;25.50;;;13.23;;
51358;SDS011;37448;51.588;7.248;2023-02-11T04:01:08;28.55;;;12.02;;
51358;SDS011;37448;51.588;7.248;2023-02-11T04:03:09;26.48;;;13.38;;
51358;SDS011;37448;51.588;7.248;2023-02-11T04:05:12;27.65;;;14.00;;
51358;SDS011;37448;51.588;7.248;2023-02-11T04:07:14;30.35;;;14.05;;
51358;SDS011;37448;51.588;7.248;2023-02-11T04:09:15;40.97;;;13.48;;
51358;SDS011;37448;51.588;7.248;2023-02-11T04:11:16;26.88;;;13.95;;
51358;SDS011;37448;51.588;7.248;2023-02-11T04:13:16;33.50;;;14.38;;
51358;SDS011;37448;51.588;7.248;2023-02-11T04:15:17;26.80;;;14.88;;
51358;SDS011;37448;51.588;7.248;2023-02-11T04:17:17;26.23;;;12.27;;
51358;SDS011;37448;51.588;7.248;2023-02-11T04:19:17;26.42;;;14.00;;
51358;SDS011;37448;51.588;7.248;2023-02-11T04:21:18;26.52;;;13.15;;
51358;SDS011;37448;51.588;7.248;2023-02-11T04:23:18;22.90;;;13.05;;
51358;SDS011;37448;51.588;7.248;2023-02-11T04:25:19;27.92;;;13.90;;
51358;SDS011;37448;51.588;7.248;2023-02-11T04:27:20;25.50;;;13.32;;
51358;SDS011;37448;51.588;7.248;2023-02-11T04:29:20;26.67;;;13.52;;
51358;SDS011;37448;51.588;7.248;2023-02-11T04:31:21;23.67;;;12.38;;
51358;SDS011;37448;51.588;7.248;2023-02-11T04:33:21;26.45;;;13.77;;
51358;SDS011;37448;51.588;7.248;2023-02-11T04:35:22;26.98;;;12.95;;
51358;SDS011;37448;51.588;7.248;2023-02-11T04:37:23;28.15;;;13.63;;
51358;SDS011;37448;51.588;7.248;2023-02-11T04:39:23;29.73;;;14.50;;
51358;SDS011;37448;51.588;7.248;2023-02-11T04:41:24;30.13;;;13.00;;
51358;SDS011;37448;51.588;7.248;2023-02-11T04:43:24;27.98;;;14.27;;
51358;SDS011;37448;51.588;7.248;2023-02-11T04:45:24;27.90;;;14.70;;
51358;SDS011;37448;51.588;7.248;2023-02-11T04:47:25;28.95;;;14.57;;
51358;SDS011;37448;51.588;7.248;2023-02-11T04:49:25;26.45;;;15.32;;
51358;SDS011;37448;51.588;7.248;2023-02-11T04:51:25;33.65;;;16.85;;
51358;SDS011;37448;51.588;7.248;2023-02-11T04:53:26;35.90;;;16.10;;
51358;SDS011;37448;51.588;7.248;2023-02-11T04:55:26;25.45;;;14.20;;
51358;SDS011;37448;51.588;7.248;2023-02-11T04:57:27;28.23;;;14.45;;
51358;SDS011;37448;51.588;7.248;2023-02-11T04:59:27;30.50;;;14.63;;
51358;SDS011;37448;51.588;7.248;2023-02-11T05:01:27;32.70;;;16.02;;
51358;SDS011;37448;51.588;7.248;2023-02-11T05:03:28;26.77;;;14.88;;
51358;SDS011;37448;51.588;7.248;2023-02-11T05:05:29;27.52;;;14.93;;
51358;SDS011;37448;51.588;7.248;2023-02-11T05:07:29;32.75;;;15.77;;
51358;SDS011;37448;51.588;7.248;2023-02-11T05:09:29;33.70;;;15.25;;
51358;SDS011;37448;51.588;7.248;2023-02-11T05:11:30;28.20;;;14.00;;
51358;SDS011;37448;51.588;7.248;2023-02-11T05:13:30;29.85;;;13.88;;
51358;SDS011;37448;51.588;7.248;2023-02-11T05:15:31;32.20;;;15.82;;
51358;SDS011;37448;51.588;7.248;2023-02-11T05:17:31;34.85;;;16.90;;
51358;SDS011;37448;51.588;7.248;2023-02-11T05:19:32;28.88;;;15.70;;
51358;SDS011;37448;51.588;7.248;2023-02-11T05:21:32;33.67;;;16.02;;
51358;SDS011;37448;51.588;7.248;2023-02-11T05:23:33;28.58;;;14.32;;
51358;SDS011;37448;51.588;7.248;2023-02-11T05:25:33;30.90;;;14.93;;
51358;SDS011;37448;51.588;7.248;2023-02-11T05:27:34;30.88;;;14.68;;
51358;SDS011;37448;51.588;7.248;2023-02-11T05:29:34;27.83;;;14.20;;
51358;SDS011;37448;51.588;7.248;2023-02-11T05:31:35;34.33;;;15.98;;
51358;SDS011;37448;51.588;7.248;2023-02-11T05:33:35;32.15;;;15.63;;
51358;SDS011;37448;51.588;7.248;2023-02-11T05:35:35;30.35;;;15.38;;
51358;SDS011;37448;51.588;7.248;2023-02-11T05:37:36;33.10;;;16.70;;
51358;SDS011;37448;51.588;7.248;2023-02-11T05:39:36;36.13;;;16.42;;
51358;SDS011;37448;51.588;7.248;2023-02-11T05:41:36;31.98;;;15.55;;
51358;SDS011;37448;51.588;7.248;2023-02-11T05:43:37;34.22;;;17.13;;
51358;SDS011;37448;51.588;7.248;2023-02-11T05:45:37;33.92;;;16.77;;
51358;SDS011;37448;51.588;7.248;2023-02-11T05:47:38;34.05;;;17.35;;
51358;SDS011;37448;51.588;7.248;2023-02-11T05:49:38;33.92;;;16.55;;
51358;SDS011;37448;51.588;7.248;2023-02-11T05:51:38;38.97;;;18.65;;
51358;SDS011;37448;51.588;7.248;2023-02-11T05:53:39;32.72;;;17.30;;
51358;SDS011;37448;51.588;7.248;2023-02-11T05:55:39;37.70;;;18.23;;
51358;SDS011;37448;51.588;7.248;2023-02-11T05:57:40;34.55;;;17.00;;
51358;SDS011;37448;51.588;7.248;2023-02-11T05:59:40;32.55;;;17.00;;
51358;SDS011;37448;51.588;7.248;2023-02-11T06:01:41;27.42;;;14.90;;
51358;SDS011;37448;51.588;7.248;2023-02-11T06:03:42;32.85;;;18.15;;
51358;SDS011;37448;51.588;7.248;2023-02-11T06:05:43;40.55;;;18.55;;
51358;SDS011;37448;51.588;7.248;2023-02-11T06:07:43;34.58;;;18.23;;
51358;SDS011;37448;51.588;7.248;2023-02-11T06:09:44;37.90;;;18.20;;
51358;SDS011;37448;51.588;7.248;2023-02-11T06:11:44;43.63;;;19.38;;
51358;SDS011;37448;51.588;7.248;2023-02-11T06:13:45;41.33;;;17.80;;
51358;SDS011;37448;51.588;7.248;2023-02-11T06:15:53;47.22;;;20.55;;
51358;SDS011;37448;51.588;7.248;2023-02-11T06:17:55;35.92;;;18.30;;
51358;SDS011;37448;51.588;7.248;2023-02-11T06:19:55;46.30;;;19.52;;
51358;SDS011;37448;51.588;7.248;2023-02-11T06:21:56;46.70;;;20.52;;
51358;SDS011;37448;51.588;7.248;2023-02-11T06:23:56;47.25;;;20.20;;
51358;SDS011;37448;51.588;7.248;2023-02-11T06:26:00;39.08;;;17.90;;
51358;SDS011;37448;51.588;7.248;2023-02-11T06:28:07;33.08;;;16.90;;
51358;SDS011;37448;51.588;7.248;2023-02-11T06:30:09;47.65;;;20.65;;
51358;SDS011;37448;51.588;7.248;2023-02-11T06:32:10;45.47;;;20.70;;
51358;SDS011;37448;51.588;7.248;2023-02-11T06:34:11;40.28;;;18.45;;
51358;SDS011;37448;51.588;7.248;2023-02-11T06:36:13;48.60;;;19.38;;
51358;SDS011;37448;51.588;7.248;2023-02-11T06:38:16;38.33;;;19.85;;
51358;SDS011;37448;51.588;7.248;2023-02-11T06:40:17;40.20;;;19.30;;
51358;SDS011;37448;51.588;7.248;2023-02-11T06:42:17;42.10;;;20.00;;
51358;SDS011;37448;51.588;7.248;2023-02-11T06:44:17;41.20;;;19.77;;
51358;SDS011;37448;51.588;7.248;2023-02-11T06:46:18;45.65;;;19.33;;
51358;SDS011;37448;51.588;7.248;2023-02-11T06:48:19;43.03;;;18.52;;
51358;SDS011;37448;51.588;7.248;2023-02-11T06:50:20;44.15;;;20.20;;
51358;SDS011;37448;51.588;7.248;2023-02-11T06:52:20;48.08;;;19.20;;
51358;SDS011;37448;51.588;7.248;2023-02-11T06:54:20;48.95;;;19.88;;
51358;SDS011;37448;51.588;7.248;2023-02-11T06:56:21;41.60;;;18.88;;
51358;SDS011;37448;51.588;7.248;2023-02-11T06:58:23;48.45;;;20.10;;
51358;SDS011;37448;51.588;7.248;2023-02-11T07:00:24;44.17;;;20.85;;
51358;SDS011;37448;51.588;7.248;2023-02-11T07:02:25;52.45;;;23.83;;
51358;SDS011;37448;51.588;7.248;2023-02-11T07:04:25;52.53;;;21.83;;
51358;SDS011;37448;51.588;7.248;2023-02-11T07:06:26;51.33;;;21.35;;
51358;SDS011;37448;51.588;7.248;2023-02-11T07:08:26;42.00;;;20.70;;
51358;SDS011;37448;51.588;7.248;2023-02-11T07:10:27;44.90;;;19.98;;
51358;SDS011;37448;51.588;7.248;2023-02-11T07:12:27;43.45;;;20.77;;
51358;SDS011;37448;51.588;7.248;2023-02-11T07:14:28;50.33;;;21.20;;
51358;SDS011;37448;51.588;7.248;2023-02-11T07:16:28;46.58;;;20.70;;
51358;SDS011;37448;51.588;7.248;2023-02-11T07:18:29;48.10;;;22.50;;
51358;SDS011;37448;51.588;7.248;2023-02-11T07:20:29;50.05;;;22.10;;
51358;SDS011;37448;51.588;7.248;2023-02-11T07:22:29;58.45;;;23.73;;
51358;SDS011;37448;51.588;7.248;2023-02-11T07:24:30;50.25;;;20.95;;
51358;SDS011;37448;51.588;7.248;2023-02-11T07:26:30;46.67;;;21.83;;
51358;SDS011;37448;51.588;7.248;2023-02-11T07:28:30;42.45;;;20.70;;
51358;SDS011;37448;51.588;7.248;2023-02-11T07:30:32;46.22;;;21.20;;
51358;SDS011;37448;51.588;7.248;2023-02-11T07:32:33;46.05;;;21.15;;
51358;SDS011;37448;51.588;7.248;2023-02-11T07:34:33;45.05;;;20.77;;
51358;SDS011;37448;51.588;7.248;2023-02-11T07:36:34;49.50;;;22.00;;
51358;SDS011;37448;51.588;7.248;2023-02-11T07:38:34;47.42;;;21.73;;
51358;SDS011;37448;51.588;7.248;2023-02-11T07:40:35;53.40;;;22.08;;
51358;SDS011;37448;51.588;7.248;2023-02-11T07:42:36;51.17;;;20.90;;
51358;SDS011;37448;51.588;7.248;2023-02-11T07:44:36;53.28;;;20.63;;
51358;SDS011;37448;51.588;7.248;2023-02-11T07:46:37;52.40;;;21.63;;
51358;SDS011;37448;51.588;7.248;2023-02-11T07:48:41;49.30;;;22.40;;
51358;SDS011;37448;51.588;7.248;2023-02-11T07:50:42;53.78;;;21.77;;
51358;SDS011;37448;51.588;7.248;2023-02-11T07:52:42;46.08;;;21.25;;
51358;SDS011;37448;51.588;7.248;2023-02-11T07:54:43;48.47;;;20.95;;
51358;SDS011;37448;51.588;7.248;2023-02-11T07:56:43;48.35;;;20.50;;
51358;SDS011;37448;51.588;7.248;2023-02-11T07:58:43;55.15;;;22.02;;
51358;SDS011;37448;51.588;7.248;2023-02-11T08:00:44;50.53;;;21.67;;
51358;SDS011;37448;51.588;7.248;2023-02-11T08:02:45;47.20;;;21.23;;
51358;SDS011;37448;51.588;7.248;2023-02-11T08:04:45;51.05;;;21.65;;
51358;SDS011;37448;51.588;7.248;2023-02-11T08:06:46;45.15;;;20.75;;
51358;SDS011;37448;51.588;7.248;2023-02-11T08:08:46;52.40;;;20.33;;
51358;SDS011;37448;51.588;7.248;2023-02-11T08:10:47;53.33;;;23.13;;
51358;SDS011;37448;51.588;7.248;2023-02-11T08:12:47;51.38;;;20.63;;
51358;SDS011;37448;51.588;7.248;2023-02-11T08:14:48;46.88;;;19.48;;
51358;SDS011;37448;51.588;7.248;2023-02-11T08:16:48;49.47;;;19.80;;
51358;SDS011;37448;51.588;7.248;2023-02-11T08:18:49;50.55;;;20.05;;
51358;SDS011;37448;51.588;7.248;2023-02-11T08:20:50;50.70;;;20.65;;
51358;SDS011;37448;51.588;7.248;2023-02-11T08:22:50;54.63;;;21.20;;
51358;SDS011;37448;51.588;7.248;2023-02-11T08:24:50;47.45;;;21.45;;
51358;SDS011;37448;51.588;7.248;2023-02-11T08:26:51;46.00;;;19.67;;
51358;SDS011;37448;51.588;7.248;2023-02-11T08:28:51;46.80;;;19.35;;
51358;SDS011;37448;51.588;7.248;2023-02-11T08:30:53;50.40;;;20.23;;
51358;SDS011;37448;51.588;7.248;2023-02-11T08:32:53;51.03;;;19.48;;
51358;SDS011;37448;51.588;7.248;2023-02-11T08:34:54;46.30;;;18.80;;
51358;SDS011;37448;51.588;7.248;2023-02-11T08:36:54;45.55;;;19.63;;
51358;SDS011;37448;51.588;7.248;2023-02-11T08:38:55;40.33;;;16.92;;
51358;SDS011;37448;51.588;7.248;2023-02-11T08:40:58;46.10;;;19.40;;
51358;SDS011;37448;51.588;7.248;2023-02-11T08:42:59;42.90;;;20.88;;
51358;SDS011;37448;51.588;7.248;2023-02-11T08:45:00;41.65;;;18.05;;
51358;SDS011;37448;51.588;7.248;2023-02-11T08:47:00;47.65;;;19.17;;
51358;SDS011;37448;51.588;7.248;2023-02-11T08:49:00;59.83;;;22.20;;
51358;SDS011;37448;51.588;7.248;2023-02-11T08:51:04;50.22;;;20.67;;
51358;SDS011;37448;51.588;7.248;2023-02-11T08:53:06;45.80;;;19.13;;
51358;SDS011;37448;51.588;7.248;2023-02-11T08:55:06;55.30;;;21.95;;
51358;SDS011;37448;51.588;7.248;2023-02-11T08:57:07;46.40;;;19.15;;
51358;SDS011;37448;51.588;7.248;2023-02-11T08:59:07;45.03;;;19.35;;
51358;SDS011;37448;51.588;7.248;2023-02-11T09:01:19;44.28;;;20.85;;
51358;SDS011;37448;51.588;7.248;2023-02-11T09:03:22;45.92;;;20.23;;
51358;SDS011;37448;51.588;7.248;2023-02-11T09:05:22;55.63;;;19.90;;
51358;SDS011;37448;51.588;7.248;2023-02-11T09:07:23;52.90;;;20.50;;
51358;SDS011;37448;51.588;7.248;2023-02-11T09:09:23;56.47;;;21.00;;
51358;SDS011;37448;51.588;7.248;2023-02-11T09:11:26;56.35;;;22.40;;
51358;SDS011;37448;51.588;7.248;2023-02-11T09:13:29;52.17;;;22.63;;
51358;SDS011;37448;51.588;7.248;2023-02-11T09:15:30;49.45;;;21.08;;
51358;SDS011;37448;51.588;7.248;2023-02-11T09:17:30;43.53;;;19.73;;
51358;SDS011;37448;51.588;7.248;2023-02-11T09:19:31;52.00;;;22.08;;
51358;SDS011;37448;51.588;7.248;2023-02-11T09:21:31;53.22;;;20.23;;
51358;SDS011;37448;51.588;7.248;2023-02-11T09:23:32;54.00;;;21.88;;
51358;SDS011;37448;51.588;7.248;2023-02-11T09:25:33;46.28;;;20.30;;
51358;SDS011;37448;51.588;7.248;2023-02-11T09:27:34;46.20;;;21.17;;
51358;SDS011;37448;51.588;7.248;2023-02-11T09:29:34;52.25;;;22.95;;
51358;SDS011;37448;51.588;7.248;2023-02-11T09:31:34;49.35;;;21.27;;
51358;SDS011;37448;51.588;7.248;2023-02-11T09:33:35;48.55;;;21.92;;
51358;SDS011;37448;51.588;7.248;2023-02-11T09:35:37;43.38;;;19.10;;
51358;SDS011;37448;51.588;7.248;2023-02-11T09:37:37;47.15;;;20.20;;
51358;SDS011;37448;51.588;7.248;2023-02-11T09:39:38;52.38;;;21.92;;
51358;SDS011;37448;51.588;7.248;2023-02-11T09:43:53;48.25;;;20.55;;
51358;SDS011;37448;51.588;7.248;2023-02-11T09:45:56;52.33;;;22.23;;
51358;SDS011;37448;51.588;7.248;2023-02-11T09:48:02;49.92;;;21.85;;
51358;SDS011;37448;51.588;7.248;2023-02-11T09:50:10;52.80;;;21.33;;
51358;SDS011;37448;51.588;7.248;2023-02-11T09:52:30;50.35;;;22.50;;
51358;SDS011;37448;51.588;7.248;2023-02-11T09:54:41;43.00;;;20.02;;
51358;SDS011;37448;51.588;7.248;2023-02-11T09:57:07;54.13;;;20.02;;
51358;SDS011;37448;51.588;7.248;2023-02-11T09:59:12;55.97;;;22.25;;
51358;SDS011;37448;51.588;7.248;2023-02-11T10:03:39;50.70;;;22.02;;
51358;SDS011;37448;51.588;7.248;2023-02-11T10:08:21;51.60;;;22.02;;
51358;SDS011;37448;51.588;7.248;2023-02-11T10:15:46;51.47;;;20.45;;
51358;SDS011;37448;51.588;7.248;2023-02-11T10:22:18;48.33;;;20.63;;
51358;SDS011;37448;51.588;7.248;2023-02-11T10:24:26;48.45;;;21.95;;
51358;SDS011;37448;51.588;7.248;2023-02-11T10:26:29;47.45;;;20.73;;
51358;SDS011;37448;51.588;7.248;2023-02-11T10:28:34;44.05;;;20.58;;
51358;SDS011;37448;51.588;7.248;2023-02-11T10:30:43;47.33;;;20.95;;
51358;SDS011;37448;51.588;7.248;2023-02-11T10:33:05;57.25;;;21.20;;
51358;SDS011;37448;51.588;7.248;2023-02-11T10:35:24;46.28;;;18.73;;
51358;SDS011;37448;51.588;7.248;2023-02-11T10:37:26;51.13;;;21.95;;
51358;SDS011;37448;51.588;7.248;2023-02-11T10:39:26;52.72;;;21.95;;
51358;SDS011;37448;51.588;7.248;2023-02-11T10:41:29;52.88;;;21.55;;
51358;SDS011;37448;51.588;7.248;2023-02-11T10:43:33;50.97;;;21.33;;
51358;SDS011;37448;51.588;7.248;2023-02-11T10:45:52;52.95;;;22.13;;
51358;SDS011;37448;51.588;7.248;2023-02-11T10:47:54;51.15;;;21.88;;
51358;SDS011;37448;51.588;7.248;2023-02-11T10:49:55;51.53;;;21.67;;
51358;SDS011;37448;51.588;7.248;2023-02-11T10:52:12;58.80;;;22.27;;
51358;SDS011;37448;51.588;7.248;2023-02-11T10:54:17;52.42;;;21.73;;
51358;SDS011;37448;51.588;7.248;2023-02-11T10:56:24;48.80;;;20.42;;
51358;SDS011;37448;51.588;7.248;2023-02-11T10:58:27;53.47;;;22.20;;
51358;SDS011;37448;51.588;7.248;2023-02-11T11:00:36;48.88;;;21.88;;
51358;SDS011;37448;51.588;7.248;2023-02-11T11:02:39;54.10;;;23.13;;
51358;SDS011;37448;51.588;7.248;2023-02-11T11:04:43;46.83;;;21.25;;
51358;SDS011;37448;51.588;7.248;2023-02-11T11:06:44;48.85;;;22.17;;
51358;SDS011;37448;51.588;7.248;2023-02-11T11:08:46;49.78;;;22.55;;
51358;SDS011;37448;51.588;7.248;2023-02-11T11:11:00;48.03;;;22.95;;
51358;SDS011;37448;51.588;7.248;2023-02-11T11:13:07;55.88;;;22.83;;
51358;SDS011;37448;51.588;7.248;2023-02-11T11:15:27;58.88;;;24.20;;
51358;SDS011;37448;51.588;7.248;2023-02-11T11:17:29;56.92;;;25.27;;
51358;SDS011;37448;51.588;7.248;2023-02-11T11:19:29;54.13;;;24.00;;
51358;SDS011;37448;51.588;7.248;2023-02-11T11:21:33;56.55;;;22.92;;
51358;SDS011;37448;51.588;7.248;2023-02-11T11:23:39;60.50;;;24.70;;
51358;SDS011;37448;51.588;7.248;2023-02-11T11:28:16;54.30;;;22.58;;
51358;SDS011;37448;51.588;7.248;2023-02-11T11:30:20;59.83;;;25.25;;
51358;SDS011;37448;51.588;7.248;2023-02-11T11:32:24;54.60;;;25.15;;
51358;SDS011;37448;51.588;7.248;2023-02-11T11:34:32;60.60;;;25.80;;
51358;SDS011;37448;51.588;7.248;2023-02-11T11:36:37;56.40;;;23.85;;
51358;SDS011;37448;51.588;7.248;2023-02-11T11:38:43;54.30;;;24.98;;
51358;SDS011;37448;51.588;7.248;2023-02-11T11:40:47;53.28;;;24.48;;
51358;SDS011;37448;51.588;7.248;2023-02-11T11:43:21;52.35;;;23.67;;
51358;SDS011;37448;51.588;7.248;2023-02-11T11:45:23;52.05;;;22.67;;
51358;SDS011;37448;51.588;7.248;2023-02-11T11:49:30;52.58;;;23.15;;
51358;SDS011;37448;51.588;7.248;2023-02-11T11:51:34;56.13;;;24.70;;
51358;SDS011;37448;51.588;7.248;2023-02-11T11:55:55;56.13;;;24.38;;
51358;SDS011;37448;51.588;7.248;2023-02-11T11:58:01;49.05;;;21.27;;
51358;SDS011;37448;51.588;7.248;2023-02-11T12:00:04;55.33;;;22.27;;
51358;SDS011;37448;51.588;7.248;2023-02-11T12:02:21;49.05;;;21.20;;
51358;SDS011;37448;51.588;7.248;2023-02-11T12:04:37;50.00;;;21.83;;
51358;SDS011;37448;51.588;7.248;2023-02-11T12:06:50;51.60;;;22.35;;
51358;SDS011;37448;51.588;7.248;2023-02-11T12:16:48;54.40;;;21.90;;
51358;SDS011;37448;51.588;7.248;2023-02-11T12:23:56;48.28;;;21.05;;
51358;SDS011;37448;51.588;7.248;2023-02-11T12:38:02;51.92;;;22.83;;
51358;SDS011;37448;51.588;7.248;2023-02-11T12:40:17;55.22;;;22.08;;
51358;SDS011;37448;51.588;7.248;2023-02-11T12:44:51;48.90;;;21.90;;
51358;SDS011;37448;51.588;7.248;2023-02-11T12:47:07;52.67;;;21.92;;
51358;SDS011;37448;51.588;7.248;2023-02-11T12:54:09;50.22;;;22.88;;
51358;SDS011;37448;51.588;7.248;2023-02-11T12:56:22;52.25;;;20.45;;
51358;SDS011;37448;51.588;7.248;2023-02-11T12:58:36;48.20;;;22.13;;
51358;SDS011;37448;51.588;7.248;2023-02-11T13:05:09;48.50;;;21.00;;
51358;SDS011;37448;51.588;7.248;2023-02-11T13:07:40;53.72;;;22.23;;
51358;SDS011;37448;51.588;7.248;2023-02-11T13:09:45;52.33;;;21.65;;
51358;SDS011;37448;51.588;7.248;2023-02-11T13:11:52;47.05;;;22.60;;
51358;SDS011;37448;51.588;7.248;2023-02-11T13:14:04;47.80;;;22.50;;
51358;SDS011;37448;51.588;7.248;2023-02-11T13:16:41;49.45;;;20.42;;
51358;SDS011;37448;51.588;7.248;2023-02-11T13:22:59;48.00;;;20.25;;
51358;SDS011;37448;51.588;7.248;2023-02-11T13:27:41;51.10;;;22.80;;
51358;SDS011;37448;51.588;7.248;2023-02-11T13:30:01;51.50;;;20.75;;
51358;SDS011;37448;51.588;7.248;2023-02-11T13:32:09;45.35;;;20.35;;